sensor_id;sensor_type;location;lat;lon;timestamp;P1;durP1;ratioP1;P2;durP2;ratioP2
85054;SDS011;75391;48.300;16.352;2024-02-23T00:01:54;6.40;;;2.63;;
85054;SDS011;75391;48.300;16.352;2024-02-23T00:04:20;5.55;;;2.63;;
85054;SDS011;75391;48.300;16.352;2024-02-23T00:06:46;5.15;;;2.78;;
85054;SDS011;75391;48.300;16.352;2024-02-23T00:09:12;5.85;;;3.08;;
85054;SDS011;75391;48.300;16.352;2024-02-23T00:11:41;6.38;;;3.10;;
85054;SDS011;75391;48.300;16.352;2024-02-23T00:14:06;7.05;;;3.88;;
85054;SDS011;75391;48.300;16.352;2024-02-23T00:16:37;6.10;;;3.30;;
85054;SDS011;75391;48.300;16.352;2024-02-23T00:19:04;7.80;;;3.40;;
85054;SDS011;75391;48.300;16.352;2024-02-23T00:21:29;7.50;;;3.55;;
85054;SDS011;75391;48.300;16.352;2024-02-23T00:23:55;6.47;;;3.63;;
85054;SDS011;75391;48.300;16.352;2024-02-23T00:26:21;6.88;;;3.35;;
85054;SDS011;75391;48.300;16.352;2024-02-23T00:28:47;6.43;;;3.42;;
85054;SDS011;75391;48.300;16.352;2024-02-23T00:31:12;8.10;;;3.88;;
85054;SDS011;75391;48.300;16.352;2024-02-23T00:33:38;7.57;;;3.60;;
85054;SDS011;75391;48.300;16.352;2024-02-23T00:36:04;7.30;;;3.63;;
85054;SDS011;75391;48.300;16.352;2024-02-23T00:38:30;7.75;;;3.40;;
85054;SDS011;75391;48.300;16.352;2024-02-23T00:40:56;8.02;;;3.72;;
85054;SDS011;75391;48.300;16.352;2024-02-23T00:43:21;5.82;;;3.20;;
85054;SDS011;75391;48.300;16.352;2024-02-23T00:45:47;7.15;;;3.47;;
85054;SDS011;75391;48.300;16.352;2024-02-23T00:48:13;7.00;;;3.10;;
85054;SDS011;75391;48.300;16.352;2024-02-23T00:50:39;6.45;;;3.50;;
85054;SDS011;75391;48.300;16.352;2024-02-23T00:53:04;7.90;;;3.45;;
85054;SDS011;75391;48.300;16.352;2024-02-23T00:55:30;7.85;;;3.38;;
85054;SDS011;75391;48.300;16.352;2024-02-23T00:57:56;6.90;;;3.33;;
85054;SDS011;75391;48.300;16.352;2024-02-23T01:00:22;8.82;;;3.67;;
85054;SDS011;75391;48.300;16.352;2024-02-23T01:02:47;5.90;;;3.08;;
85054;SDS011;75391;48.300;16.352;2024-02-23T01:05:13;6.72;;;3.33;;
85054;SDS011;75391;48.300;16.352;2024-02-23T01:07:39;7.40;;;3.53;;
85054;SDS011;75391;48.300;16.352;2024-02-23T01:10:05;7.43;;;3.53;;
85054;SDS011;75391;48.300;16.352;2024-02-23T01:12:31;8.45;;;3.60;;
85054;SDS011;75391;48.300;16.352;2024-02-23T01:14:57;8.52;;;4.00;;
85054;SDS011;75391;48.300;16.352;2024-02-23T01:17:23;8.07;;;4.05;;
85054;SDS011;75391;48.300;16.352;2024-02-23T01:19:48;7.88;;;3.88;;
85054;SDS011;75391;48.300;16.352;2024-02-23T01:22:14;8.38;;;4.05;;
85054;SDS011;75391;48.300;16.352;2024-02-23T01:24:40;8.35;;;3.85;;
85054;SDS011;75391;48.300;16.352;2024-02-23T01:27:05;10.77;;;4.22;;
85054;SDS011;75391;48.300;16.352;2024-02-23T01:29:31;8.73;;;3.80;;
85054;SDS011;75391;48.300;16.352;2024-02-23T01:31:57;8.20;;;3.80;;
85054;SDS011;75391;48.300;16.352;2024-02-23T01:34:23;8.80;;;4.15;;
85054;SDS011;75391;48.300;16.352;2024-02-23T01:36:49;8.75;;;3.90;;
85054;SDS011;75391;48.300;16.352;2024-02-23T01:39:14;7.72;;;3.80;;
85054;SDS011;75391;48.300;16.352;2024-02-23T01:41:40;8.90;;;3.88;;
85054;SDS011;75391;48.300;16.352;2024-02-23T01:44:06;8.07;;;3.60;;
85054;SDS011;75391;48.300;16.352;2024-02-23T01:46:32;7.25;;;3.63;;
85054;SDS011;75391;48.300;16.352;2024-02-23T01:48:58;8.63;;;3.50;;
85054;SDS011;75391;48.300;16.352;2024-02-23T01:51:24;7.88;;;3.85;;
85054;SDS011;75391;48.300;16.352;2024-02-23T01:53:50;7.50;;;3.60;;
85054;SDS011;75391;48.300;16.352;2024-02-23T01:56:17;7.38;;;3.50;;
85054;SDS011;75391;48.300;16.352;2024-02-23T01:58:43;7.20;;;3.70;;
85054;SDS011;75391;48.300;16.352;2024-02-23T02:01:09;7.22;;;3.55;;
85054;SDS011;75391;48.300;16.352;2024-02-23T02:03:36;7.90;;;4.20;;
85054;SDS011;75391;48.300;16.352;2024-02-23T02:06:05;7.65;;;3.58;;
85054;SDS011;75391;48.300;16.352;2024-02-23T02:08:34;7.15;;;3.63;;
85054;SDS011;75391;48.300;16.352;2024-02-23T02:11:00;7.30;;;3.45;;
85054;SDS011;75391;48.300;16.352;2024-02-23T02:13:28;6.75;;;3.63;;
85054;SDS011;75391;48.300;16.352;2024-02-23T02:15:54;7.82;;;3.70;;
85054;SDS011;75391;48.300;16.352;2024-02-23T02:18:19;7.55;;;3.80;;
85054;SDS011;75391;48.300;16.352;2024-02-23T02:20:55;6.13;;;3.22;;
85054;SDS011;75391;48.300;16.352;2024-02-23T02:23:21;7.47;;;3.55;;
85054;SDS011;75391;48.300;16.352;2024-02-23T02:25:53;6.82;;;3.55;;
85054;SDS011;75391;48.300;16.352;2024-02-23T02:28:20;6.95;;;3.33;;
85054;SDS011;75391;48.300;16.352;2024-02-23T02:30:47;6.70;;;3.50;;
85054;SDS011;75391;48.300;16.352;2024-02-23T02:33:13;7.88;;;3.60;;
85054;SDS011;75391;48.300;16.352;2024-02-23T02:35:39;6.25;;;3.28;;
85054;SDS011;75391;48.300;16.352;2024-02-23T02:38:05;7.30;;;3.53;;
85054;SDS011;75391;48.300;16.352;2024-02-23T02:40:31;6.78;;;3.85;;
85054;SDS011;75391;48.300;16.352;2024-02-23T02:42:57;7.07;;;3.42;;
85054;SDS011;75391;48.300;16.352;2024-02-23T02:45:23;8.07;;;3.67;;
85054;SDS011;75391;48.300;16.352;2024-02-23T02:47:49;7.70;;;3.70;;
85054;SDS011;75391;48.300;16.352;2024-02-23T02:50:15;8.27;;;3.50;;
85054;SDS011;75391;48.300;16.352;2024-02-23T02:52:41;6.50;;;3.42;;
85054;SDS011;75391;48.300;16.352;2024-02-23T02:55:08;8.80;;;4.57;;
85054;SDS011;75391;48.300;16.352;2024-02-23T02:57:34;6.18;;;3.20;;
85054;SDS011;75391;48.300;16.352;2024-02-23T03:00:00;7.78;;;3.83;;
85054;SDS011;75391;48.300;16.352;2024-02-23T03:02:25;7.15;;;3.50;;
85054;SDS011;75391;48.300;16.352;2024-02-23T03:04:51;6.75;;;3.67;;
85054;SDS011;75391;48.300;16.352;2024-02-23T03:07:17;6.97;;;3.20;;
85054;SDS011;75391;48.300;16.352;2024-02-23T03:09:43;8.02;;;3.85;;
85054;SDS011;75391;48.300;16.352;2024-02-23T03:12:10;5.13;;;2.92;;
85054;SDS011;75391;48.300;16.352;2024-02-23T03:14:36;6.13;;;3.42;;
85054;SDS011;75391;48.300;16.352;2024-02-23T03:17:02;7.50;;;3.30;;
85054;SDS011;75391;48.300;16.352;2024-02-23T03:19:28;6.50;;;3.40;;
85054;SDS011;75391;48.300;16.352;2024-02-23T03:21:53;8.07;;;3.40;;
85054;SDS011;75391;48.300;16.352;2024-02-23T03:24:19;8.98;;;3.63;;
85054;SDS011;75391;48.300;16.352;2024-02-23T03:26:45;6.35;;;3.08;;
85054;SDS011;75391;48.300;16.352;2024-02-23T03:29:11;7.43;;;3.40;;
85054;SDS011;75391;48.300;16.352;2024-02-23T03:31:37;6.30;;;3.33;;
85054;SDS011;75391;48.300;16.352;2024-02-23T03:34:02;6.82;;;3.35;;
85054;SDS011;75391;48.300;16.352;2024-02-23T03:36:28;6.50;;;3.25;;
85054;SDS011;75391;48.300;16.352;2024-02-23T03:38:54;6.80;;;3.50;;
85054;SDS011;75391;48.300;16.352;2024-02-23T03:41:20;9.77;;;5.05;;
85054;SDS011;75391;48.300;16.352;2024-02-23T03:43:46;11.70;;;6.05;;
85054;SDS011;75391;48.300;16.352;2024-02-23T03:46:11;11.13;;;5.93;;
85054;SDS011;75391;48.300;16.352;2024-02-23T03:48:37;12.77;;;6.40;;
85054;SDS011;75391;48.300;16.352;2024-02-23T03:51:04;12.13;;;6.45;;
85054;SDS011;75391;48.300;16.352;2024-02-23T03:53:30;14.23;;;7.20;;
85054;SDS011;75391;48.300;16.352;2024-02-23T03:55:56;15.63;;;8.68;;
85054;SDS011;75391;48.300;16.352;2024-02-23T03:58:22;17.70;;;9.82;;
85054;SDS011;75391;48.300;16.352;2024-02-23T04:00:48;21.08;;;10.35;;
85054;SDS011;75391;48.300;16.352;2024-02-23T04:03:14;20.35;;;10.38;;
85054;SDS011;75391;48.300;16.352;2024-02-23T04:05:40;17.02;;;9.85;;
85054;SDS011;75391;48.300;16.352;2024-02-23T04:08:05;19.02;;;11.02;;
85054;SDS011;75391;48.300;16.352;2024-02-23T04:10:32;20.27;;;10.30;;
85054;SDS011;75391;48.300;16.352;2024-02-23T04:12:59;19.42;;;10.35;;
85054;SDS011;75391;48.300;16.352;2024-02-23T04:15:25;19.13;;;10.27;;
85054;SDS011;75391;48.300;16.352;2024-02-23T04:17:51;16.77;;;9.63;;
85054;SDS011;75391;48.300;16.352;2024-02-23T04:20:17;16.42;;;9.05;;
85054;SDS011;75391;48.300;16.352;2024-02-23T04:22:43;17.77;;;9.60;;
85054;SDS011;75391;48.300;16.352;2024-02-23T04:25:09;14.52;;;7.40;;
85054;SDS011;75391;48.300;16.352;2024-02-23T04:27:35;13.85;;;6.90;;
85054;SDS011;75391;48.300;16.352;2024-02-23T04:30:01;12.25;;;6.35;;
85054;SDS011;75391;48.300;16.352;2024-02-23T04:32:27;10.27;;;5.15;;
85054;SDS011;75391;48.300;16.352;2024-02-23T04:34:53;10.30;;;4.68;;
85054;SDS011;75391;48.300;16.352;2024-02-23T04:37:20;9.50;;;4.57;;
85054;SDS011;75391;48.300;16.352;2024-02-23T04:39:46;8.68;;;4.70;;
85054;SDS011;75391;48.300;16.352;2024-02-23T04:42:12;8.07;;;3.90;;
85054;SDS011;75391;48.300;16.352;2024-02-23T04:44:38;8.88;;;4.18;;
85054;SDS011;75391;48.300;16.352;2024-02-23T04:47:06;7.68;;;3.55;;
85054;SDS011;75391;48.300;16.352;2024-02-23T04:49:32;6.28;;;3.33;;
85054;SDS011;75391;48.300;16.352;2024-02-23T04:51:57;6.30;;;2.90;;
85054;SDS011;75391;48.300;16.352;2024-02-23T04:54:23;5.57;;;2.72;;
85054;SDS011;75391;48.300;16.352;2024-02-23T04:56:49;3.83;;;2.40;;
85054;SDS011;75391;48.300;16.352;2024-02-23T04:59:14;4.20;;;2.00;;
85054;SDS011;75391;48.300;16.352;2024-02-23T05:01:40;5.07;;;2.22;;
85054;SDS011;75391;48.300;16.352;2024-02-23T05:04:06;4.50;;;2.28;;
85054;SDS011;75391;48.300;16.352;2024-02-23T05:06:32;4.13;;;1.70;;
85054;SDS011;75391;48.300;16.352;2024-02-23T05:08:57;4.93;;;1.73;;
85054;SDS011;75391;48.300;16.352;2024-02-23T05:11:23;3.50;;;1.70;;
85054;SDS011;75391;48.300;16.352;2024-02-23T05:13:49;5.00;;;1.67;;
85054;SDS011;75391;48.300;16.352;2024-02-23T05:16:15;4.30;;;1.90;;
85054;SDS011;75391;48.300;16.352;2024-02-23T05:18:41;4.38;;;1.80;;
85054;SDS011;75391;48.300;16.352;2024-02-23T05:21:07;4.18;;;1.80;;
85054;SDS011;75391;48.300;16.352;2024-02-23T05:23:33;4.05;;;1.95;;
85054;SDS011;75391;48.300;16.352;2024-02-23T05:25:59;3.90;;;1.40;;
85054;SDS011;75391;48.300;16.352;2024-02-23T05:28:25;2.63;;;1.75;;
85054;SDS011;75391;48.300;16.352;2024-02-23T05:30:51;3.80;;;1.50;;
85054;SDS011;75391;48.300;16.352;2024-02-23T05:33:17;3.08;;;1.42;;
85054;SDS011;75391;48.300;16.352;2024-02-23T05:35:42;4.53;;;1.52;;
85054;SDS011;75391;48.300;16.352;2024-02-23T05:38:08;3.83;;;1.40;;
85054;SDS011;75391;48.300;16.352;2024-02-23T05:40:34;3.03;;;1.30;;
85054;SDS011;75391;48.300;16.352;2024-02-23T05:43:00;5.00;;;1.58;;
85054;SDS011;75391;48.300;16.352;2024-02-23T05:45:25;3.83;;;1.15;;
85054;SDS011;75391;48.300;16.352;2024-02-23T05:47:51;1.63;;;1.15;;
85054;SDS011;75391;48.300;16.352;2024-02-23T05:50:17;2.83;;;1.02;;
85054;SDS011;75391;48.300;16.352;2024-02-23T05:52:43;3.00;;;1.10;;
85054;SDS011;75391;48.300;16.352;2024-02-23T05:55:08;2.42;;;1.20;;
85054;SDS011;75391;48.300;16.352;2024-02-23T05:57:34;1.88;;;1.10;;
85054;SDS011;75391;48.300;16.352;2024-02-23T06:00:00;2.17;;;0.95;;
85054;SDS011;75391;48.300;16.352;2024-02-23T06:02:26;2.47;;;1.13;;
85054;SDS011;75391;48.300;16.352;2024-02-23T06:04:52;1.80;;;1.08;;
85054;SDS011;75391;48.300;16.352;2024-02-23T06:07:18;3.95;;;1.80;;
85054;SDS011;75391;48.300;16.352;2024-02-23T06:09:44;2.38;;;1.15;;
85054;SDS011;75391;48.300;16.352;2024-02-23T06:12:09;5.07;;;1.20;;
85054;SDS011;75391;48.300;16.352;2024-02-23T06:14:35;2.03;;;1.10;;
85054;SDS011;75391;48.300;16.352;2024-02-23T06:17:01;3.00;;;0.95;;
85054;SDS011;75391;48.300;16.352;2024-02-23T06:19:28;3.28;;;0.88;;
85054;SDS011;75391;48.300;16.352;2024-02-23T06:21:54;2.03;;;1.20;;
85054;SDS011;75391;48.300;16.352;2024-02-23T06:24:19;1.80;;;0.93;;
85054;SDS011;75391;48.300;16.352;2024-02-23T06:26:45;1.50;;;1.00;;
85054;SDS011;75391;48.300;16.352;2024-02-23T06:29:11;1.55;;;0.90;;
85054;SDS011;75391;48.300;16.352;2024-02-23T06:31:38;1.63;;;1.10;;
85054;SDS011;75391;48.300;16.352;2024-02-23T06:34:05;2.60;;;0.90;;
85054;SDS011;75391;48.300;16.352;2024-02-23T06:36:31;1.65;;;1.00;;
85054;SDS011;75391;48.300;16.352;2024-02-23T06:38:57;1.50;;;0.90;;
85054;SDS011;75391;48.300;16.352;2024-02-23T06:41:23;2.35;;;1.20;;
85054;SDS011;75391;48.300;16.352;2024-02-23T06:43:48;2.55;;;1.13;;
85054;SDS011;75391;48.300;16.352;2024-02-23T06:46:14;2.20;;;0.70;;
85054;SDS011;75391;48.300;16.352;2024-02-23T06:48:40;2.08;;;0.77;;
85054;SDS011;75391;48.300;16.352;2024-02-23T06:51:06;0.85;;;0.80;;
85054;SDS011;75391;48.300;16.352;2024-02-23T06:53:32;1.60;;;0.90;;
85054;SDS011;75391;48.300;16.352;2024-02-23T06:55:58;1.88;;;1.10;;
85054;SDS011;75391;48.300;16.352;2024-02-23T06:58:24;1.90;;;1.30;;
85054;SDS011;75391;48.300;16.352;2024-02-23T07:00:49;3.88;;;1.25;;
85054;SDS011;75391;48.300;16.352;2024-02-23T07:03:15;1.65;;;1.08;;
85054;SDS011;75391;48.300;16.352;2024-02-23T07:05:41;3.40;;;1.00;;
85054;SDS011;75391;48.300;16.352;2024-02-23T07:08:06;2.70;;;1.02;;
85054;SDS011;75391;48.300;16.352;2024-02-23T07:10:33;4.22;;;1.05;;
85054;SDS011;75391;48.300;16.352;2024-02-23T07:12:58;2.17;;;1.00;;
85054;SDS011;75391;48.300;16.352;2024-02-23T07:15:24;3.50;;;0.90;;
85054;SDS011;75391;48.300;16.352;2024-02-23T07:17:50;2.13;;;0.98;;
85054;SDS011;75391;48.300;16.352;2024-02-23T07:20:16;5.63;;;1.00;;
85054;SDS011;75391;48.300;16.352;2024-02-23T07:22:45;1.05;;;0.77;;
85054;SDS011;75391;48.300;16.352;2024-02-23T07:25:12;1.83;;;0.80;;
85054;SDS011;75391;48.300;16.352;2024-02-23T07:27:44;2.33;;;1.00;;
85054;SDS011;75391;48.300;16.352;2024-02-23T07:30:10;1.38;;;0.57;;
85054;SDS011;75391;48.300;16.352;2024-02-23T07:32:36;2.78;;;0.68;;
85054;SDS011;75391;48.300;16.352;2024-02-23T07:35:02;2.97;;;0.90;;
85054;SDS011;75391;48.300;16.352;2024-02-23T07:37:30;4.28;;;0.70;;
85054;SDS011;75391;48.300;16.352;2024-02-23T07:39:56;2.47;;;0.50;;
85054;SDS011;75391;48.300;16.352;2024-02-23T07:42:21;0.50;;;0.50;;
85054;SDS011;75391;48.300;16.352;2024-02-23T07:44:47;1.30;;;0.52;;
85054;SDS011;75391;48.300;16.352;2024-02-23T07:47:13;1.20;;;0.60;;
85054;SDS011;75391;48.300;16.352;2024-02-23T07:49:38;1.52;;;0.65;;
85054;SDS011;75391;48.300;16.352;2024-02-23T07:52:04;1.95;;;0.60;;
85054;SDS011;75391;48.300;16.352;2024-02-23T07:54:30;2.00;;;0.35;;
85054;SDS011;75391;48.300;16.352;2024-02-23T07:56:56;1.15;;;0.38;;
85054;SDS011;75391;48.300;16.352;2024-02-23T07:59:22;2.08;;;0.30;;
85054;SDS011;75391;48.300;16.352;2024-02-23T08:01:48;1.00;;;0.60;;
85054;SDS011;75391;48.300;16.352;2024-02-23T08:04:14;1.05;;;0.80;;
85054;SDS011;75391;48.300;16.352;2024-02-23T08:06:40;1.70;;;0.60;;
85054;SDS011;75391;48.300;16.352;2024-02-23T08:09:06;1.50;;;0.40;;
85054;SDS011;75391;48.300;16.352;2024-02-23T08:11:32;1.42;;;0.40;;
85054;SDS011;75391;48.300;16.352;2024-02-23T08:13:58;2.75;;;0.60;;
85054;SDS011;75391;48.300;16.352;2024-02-23T08:16:24;2.38;;;0.70;;
85054;SDS011;75391;48.300;16.352;2024-02-23T08:18:49;2.13;;;0.55;;
85054;SDS011;75391;48.300;16.352;2024-02-23T08:21:15;1.00;;;0.40;;
85054;SDS011;75391;48.300;16.352;2024-02-23T08:23:41;4.50;;;0.60;;
85054;SDS011;75391;48.300;16.352;2024-02-23T08:26:07;1.23;;;0.43;;
85054;SDS011;75391;48.300;16.352;2024-02-23T08:28:33;2.88;;;0.75;;
85054;SDS011;75391;48.300;16.352;2024-02-23T08:30:58;1.40;;;0.47;;
85054;SDS011;75391;48.300;16.352;2024-02-23T08:33:24;1.08;;;0.65;;
85054;SDS011;75391;48.300;16.352;2024-02-23T08:35:50;1.58;;;0.50;;
85054;SDS011;75391;48.300;16.352;2024-02-23T08:38:16;2.17;;;0.80;;
85054;SDS011;75391;48.300;16.352;2024-02-23T08:40:41;0.75;;;0.40;;
85054;SDS011;75391;48.300;16.352;2024-02-23T08:43:07;4.38;;;0.77;;
85054;SDS011;75391;48.300;16.352;2024-02-23T08:45:33;0.93;;;0.43;;
85054;SDS011;75391;48.300;16.352;2024-02-23T08:47:59;1.75;;;0.70;;
85054;SDS011;75391;48.300;16.352;2024-02-23T08:50:25;2.65;;;0.75;;
85054;SDS011;75391;48.300;16.352;2024-02-23T08:52:51;4.32;;;1.00;;
85054;SDS011;75391;48.300;16.352;2024-02-23T08:55:16;1.20;;;0.70;;
85054;SDS011;75391;48.300;16.352;2024-02-23T08:57:42;2.95;;;0.50;;
85054;SDS011;75391;48.300;16.352;2024-02-23T09:00:08;2.80;;;0.80;;
85054;SDS011;75391;48.300;16.352;2024-02-23T09:02:34;4.10;;;0.70;;
85054;SDS011;75391;48.300;16.352;2024-02-23T09:05:01;3.33;;;0.80;;
85054;SDS011;75391;48.300;16.352;2024-02-23T09:07:26;1.80;;;0.50;;
85054;SDS011;75391;48.300;16.352;2024-02-23T09:09:52;2.17;;;0.60;;
85054;SDS011;75391;48.300;16.352;2024-02-23T09:12:18;1.15;;;0.60;;
85054;SDS011;75391;48.300;16.352;2024-02-23T09:14:44;2.72;;;0.80;;
85054;SDS011;75391;48.300;16.352;2024-02-23T09:17:10;2.83;;;0.75;;
85054;SDS011;75391;48.300;16.352;2024-02-23T09:19:35;5.65;;;1.25;;
85054;SDS011;75391;48.300;16.352;2024-02-23T09:22:01;2.65;;;0.90;;
85054;SDS011;75391;48.300;16.352;2024-02-23T09:24:28;2.13;;;0.68;;
85054;SDS011;75391;48.300;16.352;2024-02-23T09:26:53;3.88;;;0.82;;
85054;SDS011;75391;48.300;16.352;2024-02-23T09:29:19;5.13;;;0.80;;
85054;SDS011;75391;48.300;16.352;2024-02-23T09:31:45;4.00;;;0.85;;
85054;SDS011;75391;48.300;16.352;2024-02-23T09:34:11;3.13;;;1.02;;
85054;SDS011;75391;48.300;16.352;2024-02-23T09:36:37;1.70;;;0.88;;
85054;SDS011;75391;48.300;16.352;2024-02-23T09:39:02;2.33;;;0.80;;
85054;SDS011;75391;48.300;16.352;2024-02-23T09:41:28;5.47;;;0.80;;
85054;SDS011;75391;48.300;16.352;2024-02-23T09:43:55;2.50;;;0.73;;
85054;SDS011;75391;48.300;16.352;2024-02-23T09:46:23;5.63;;;0.75;;
85054;SDS011;75391;48.300;16.352;2024-02-23T09:48:51;10.27;;;1.95;;
85054;SDS011;75391;48.300;16.352;2024-02-23T09:51:17;4.15;;;1.10;;
85054;SDS011;75391;48.300;16.352;2024-02-23T09:53:43;2.08;;;1.00;;
85054;SDS011;75391;48.300;16.352;2024-02-23T09:56:10;3.97;;;0.82;;
85054;SDS011;75391;48.300;16.352;2024-02-23T09:58:36;1.75;;;0.77;;
85054;SDS011;75391;48.300;16.352;2024-02-23T10:01:03;3.25;;;0.70;;
85054;SDS011;75391;48.300;16.352;2024-02-23T10:03:29;6.28;;;1.00;;
85054;SDS011;75391;48.300;16.352;2024-02-23T10:05:56;2.65;;;0.90;;
85054;SDS011;75391;48.300;16.352;2024-02-23T10:08:25;2.85;;;1.20;;
85054;SDS011;75391;48.300;16.352;2024-02-23T10:10:51;2.88;;;1.10;;
85054;SDS011;75391;48.300;16.352;2024-02-23T10:13:20;1.05;;;0.95;;
85054;SDS011;75391;48.300;16.352;2024-02-23T10:15:49;2.40;;;1.27;;
85054;SDS011;75391;48.300;16.352;2024-02-23T10:18:16;2.75;;;1.40;;
85054;SDS011;75391;48.300;16.352;2024-02-23T10:20:42;3.22;;;1.75;;
85054;SDS011;75391;48.300;16.352;2024-02-23T10:23:08;4.38;;;1.60;;
85054;SDS011;75391;48.300;16.352;2024-02-23T10:25:35;2.65;;;1.45;;
85054;SDS011;75391;48.300;16.352;2024-02-23T10:28:05;1.90;;;1.50;;
85054;SDS011;75391;48.300;16.352;2024-02-23T10:30:31;3.30;;;1.33;;
85054;SDS011;75391;48.300;16.352;2024-02-23T10:32:57;1.65;;;1.05;;
85054;SDS011;75391;48.300;16.352;2024-02-23T10:35:24;1.85;;;1.20;;
85054;SDS011;75391;48.300;16.352;2024-02-23T10:37:51;1.27;;;0.93;;
85054;SDS011;75391;48.300;16.352;2024-02-23T10:40:18;0.68;;;0.68;;
85054;SDS011;75391;48.300;16.352;2024-02-23T10:42:46;0.77;;;0.68;;
85054;SDS011;75391;48.300;16.352;2024-02-23T10:45:14;2.13;;;1.33;;
85054;SDS011;75391;48.300;16.352;2024-02-23T10:47:41;2.15;;;1.02;;
85054;SDS011;75391;48.300;16.352;2024-02-23T10:50:08;1.10;;;1.00;;
85054;SDS011;75391;48.300;16.352;2024-02-23T10:52:35;3.13;;;1.33;;
85054;SDS011;75391;48.300;16.352;2024-02-23T10:55:01;2.45;;;1.48;;
85054;SDS011;75391;48.300;16.352;2024-02-23T10:57:27;2.08;;;1.23;;
85054;SDS011;75391;48.300;16.352;2024-02-23T10:59:53;2.33;;;1.33;;
85054;SDS011;75391;48.300;16.352;2024-02-23T11:02:19;3.28;;;1.23;;
85054;SDS011;75391;48.300;16.352;2024-02-23T11:04:48;1.33;;;1.05;;
85054;SDS011;75391;48.300;16.352;2024-02-23T11:07:16;1.60;;;1.20;;
85054;SDS011;75391;48.300;16.352;2024-02-23T11:09:54;1.50;;;1.10;;
85054;SDS011;75391;48.300;16.352;2024-02-23T11:12:25;2.58;;;1.20;;
85054;SDS011;75391;48.300;16.352;2024-02-23T11:14:56;1.80;;;1.08;;
85054;SDS011;75391;48.300;16.352;2024-02-23T11:17:22;1.30;;;0.98;;
85054;SDS011;75391;48.300;16.352;2024-02-23T11:19:54;2.25;;;1.20;;
85054;SDS011;75391;48.300;16.352;2024-02-23T11:22:24;3.25;;;1.42;;
85054;SDS011;75391;48.300;16.352;2024-02-23T11:24:50;4.65;;;1.65;;
85054;SDS011;75391;48.300;16.352;2024-02-23T11:27:16;4.57;;;1.90;;
85054;SDS011;75391;48.300;16.352;2024-02-23T11:29:42;5.25;;;1.73;;
85054;SDS011;75391;48.300;16.352;2024-02-23T11:32:14;3.50;;;1.15;;
85054;SDS011;75391;48.300;16.352;2024-02-23T11:34:55;1.70;;;1.38;;
85054;SDS011;75391;48.300;16.352;2024-02-23T11:37:21;2.00;;;1.10;;
85054;SDS011;75391;48.300;16.352;2024-02-23T11:39:47;2.50;;;1.05;;
85054;SDS011;75391;48.300;16.352;2024-02-23T11:42:13;1.83;;;1.10;;
85054;SDS011;75391;48.300;16.352;2024-02-23T11:44:40;2.40;;;1.13;;
85054;SDS011;75391;48.300;16.352;2024-02-23T11:47:05;1.30;;;1.17;;
85054;SDS011;75391;48.300;16.352;2024-02-23T11:49:32;0.93;;;0.82;;
85054;SDS011;75391;48.300;16.352;2024-02-23T11:51:58;1.23;;;1.00;;
85054;SDS011;75391;48.300;16.352;2024-02-23T11:54:24;1.70;;;1.10;;
85054;SDS011;75391;48.300;16.352;2024-02-23T11:56:50;4.90;;;1.40;;
85054;SDS011;75391;48.300;16.352;2024-02-23T11:59:16;2.15;;;0.93;;
85054;SDS011;75391;48.300;16.352;2024-02-23T12:01:42;1.77;;;1.20;;
85054;SDS011;75391;48.300;16.352;2024-02-23T12:04:08;2.05;;;1.20;;
85054;SDS011;75391;48.300;16.352;2024-02-23T12:06:34;1.45;;;1.10;;
85054;SDS011;75391;48.300;16.352;2024-02-23T12:09:00;1.95;;;1.17;;
85054;SDS011;75391;48.300;16.352;2024-02-23T12:11:26;1.45;;;1.00;;
85054;SDS011;75391;48.300;16.352;2024-02-23T12:13:52;1.88;;;1.05;;
85054;SDS011;75391;48.300;16.352;2024-02-23T12:16:20;1.83;;;1.15;;
85054;SDS011;75391;48.300;16.352;2024-02-23T12:18:46;1.67;;;0.93;;
85054;SDS011;75391;48.300;16.352;2024-02-23T12:21:18;2.50;;;1.30;;
85054;SDS011;75391;48.300;16.352;2024-02-23T12:23:45;5.25;;;2.17;;
85054;SDS011;75391;48.300;16.352;2024-02-23T12:26:13;3.38;;;1.40;;
85054;SDS011;75391;48.300;16.352;2024-02-23T12:28:40;2.03;;;1.20;;
85054;SDS011;75391;48.300;16.352;2024-02-23T12:31:06;1.90;;;1.10;;
85054;SDS011;75391;48.300;16.352;2024-02-23T12:33:32;1.95;;;0.90;;
85054;SDS011;75391;48.300;16.352;2024-02-23T12:36:00;1.40;;;0.73;;
85054;SDS011;75391;48.300;16.352;2024-02-23T12:38:27;1.55;;;0.98;;
85054;SDS011;75391;48.300;16.352;2024-02-23T12:40:53;1.30;;;1.00;;
85054;SDS011;75391;48.300;16.352;2024-02-23T12:43:19;1.27;;;0.85;;
85054;SDS011;75391;48.300;16.352;2024-02-23T12:45:45;1.33;;;0.90;;
85054;SDS011;75391;48.300;16.352;2024-02-23T12:48:11;0.82;;;0.70;;
85054;SDS011;75391;48.300;16.352;2024-02-23T12:50:36;1.80;;;0.88;;
85054;SDS011;75391;48.300;16.352;2024-02-23T12:53:02;1.15;;;0.90;;
85054;SDS011;75391;48.300;16.352;2024-02-23T12:55:29;1.00;;;0.90;;
85054;SDS011;75391;48.300;16.352;2024-02-23T12:57:55;1.17;;;0.70;;
85054;SDS011;75391;48.300;16.352;2024-02-23T13:00:20;1.13;;;0.77;;
85054;SDS011;75391;48.300;16.352;2024-02-23T13:02:46;1.65;;;0.93;;
85054;SDS011;75391;48.300;16.352;2024-02-23T13:05:13;1.95;;;0.98;;
85054;SDS011;75391;48.300;16.352;2024-02-23T13:07:39;2.58;;;1.08;;
85054;SDS011;75391;48.300;16.352;2024-02-23T13:10:05;2.75;;;1.00;;
85054;SDS011;75391;48.300;16.352;2024-02-23T13:12:32;1.58;;;1.10;;
85054;SDS011;75391;48.300;16.352;2024-02-23T13:14:58;1.63;;;0.88;;
85054;SDS011;75391;48.300;16.352;2024-02-23T13:17:24;1.23;;;0.80;;
85054;SDS011;75391;48.300;16.352;2024-02-23T13:19:49;2.47;;;1.17;;
85054;SDS011;75391;48.300;16.352;2024-02-23T13:22:15;1.60;;;1.30;;
85054;SDS011;75391;48.300;16.352;2024-02-23T13:24:41;1.10;;;1.00;;
85054;SDS011;75391;48.300;16.352;2024-02-23T13:27:07;1.85;;;0.73;;
85054;SDS011;75391;48.300;16.352;2024-02-23T13:29:33;1.20;;;0.93;;
85054;SDS011;75391;48.300;16.352;2024-02-23T13:31:58;1.23;;;1.10;;
85054;SDS011;75391;48.300;16.352;2024-02-23T13:34:24;1.33;;;0.98;;
85054;SDS011;75391;48.300;16.352;2024-02-23T13:36:50;1.40;;;0.90;;
85054;SDS011;75391;48.300;16.352;2024-02-23T13:39:16;3.25;;;0.90;;
85054;SDS011;75391;48.300;16.352;2024-02-23T13:41:41;2.72;;;1.02;;
85054;SDS011;75391;48.300;16.352;2024-02-23T13:44:07;1.45;;;0.90;;
85054;SDS011;75391;48.300;16.352;2024-02-23T13:46:38;2.13;;;0.95;;
85054;SDS011;75391;48.300;16.352;2024-02-23T13:49:04;1.00;;;0.90;;
85054;SDS011;75391;48.300;16.352;2024-02-23T13:51:31;0.98;;;0.82;;
85054;SDS011;75391;48.300;16.352;2024-02-23T13:53:58;2.30;;;1.00;;
85054;SDS011;75391;48.300;16.352;2024-02-23T13:56:24;1.67;;;0.85;;
85054;SDS011;75391;48.300;16.352;2024-02-23T13:58:50;3.72;;;0.90;;
85054;SDS011;75391;48.300;16.352;2024-02-23T14:01:16;1.52;;;0.90;;
85054;SDS011;75391;48.300;16.352;2024-02-23T14:03:42;2.63;;;1.40;;
85054;SDS011;75391;48.300;16.352;2024-02-23T14:06:08;2.30;;;1.17;;
85054;SDS011;75391;48.300;16.352;2024-02-23T14:08:34;1.73;;;0.90;;
85054;SDS011;75391;48.300;16.352;2024-02-23T14:11:00;2.35;;;1.10;;
85054;SDS011;75391;48.300;16.352;2024-02-23T14:13:26;1.98;;;1.27;;
85054;SDS011;75391;48.300;16.352;2024-02-23T14:15:52;1.13;;;0.82;;
85054;SDS011;75391;48.300;16.352;2024-02-23T14:18:18;1.25;;;1.13;;
85054;SDS011;75391;48.300;16.352;2024-02-23T14:20:44;1.83;;;1.08;;
85054;SDS011;75391;48.300;16.352;2024-02-23T14:23:11;2.13;;;1.10;;
85054;SDS011;75391;48.300;16.352;2024-02-23T14:25:37;1.05;;;0.90;;
85054;SDS011;75391;48.300;16.352;2024-02-23T14:28:02;1.50;;;1.13;;